createdAt,value
2022-09-06T00:01:17.395Z,50.19
2022-09-06T00:03:46.411Z,50.31
2022-09-06T00:06:18.423Z,50.34
2022-09-06T00:08:48.243Z,50.56
2022-09-06T00:11:17.946Z,50.74
2022-09-06T00:13:47.349Z,50.99
2022-09-06T00:16:18.826Z,51.02
2022-09-06T00:18:47.530Z,50.83
2022-09-06T00:21:28.772Z,50.75
2022-09-06T00:23:57.002Z,50.55
2022-09-06T00:26:25.556Z,50.65
2022-09-06T00:28:53.704Z,50.71
2022-09-06T00:31:24.908Z,50.88
2022-09-06T00:33:54.250Z,51.01
2022-09-06T00:36:23.134Z,51.13
2022-09-06T00:38:51.412Z,51.25
2022-09-06T00:41:19.691Z,51.36
2022-09-06T00:43:47.920Z,51.02
2022-09-06T00:46:21.178Z,51.11
2022-09-06T00:48:54.960Z,51.21
2022-09-06T00:51:27.641Z,51.40
2022-09-06T00:53:56.143Z,51.32
2022-09-06T00:56:25.523Z,51.42
2022-09-06T00:58:54.823Z,51.37
2022-09-06T01:01:23.335Z,51.33
2022-09-06T01:03:51.991Z,51.40
2022-09-06T01:06:20.474Z,51.57
2022-09-06T01:09:20.696Z,51.92
2022-09-06T01:12:04.028Z,52.03
2022-09-06T01:14:50.940Z,52.03
2022-09-06T01:17:30.992Z,52.22
2022-09-06T01:20:01.815Z,52.56
2022-09-06T01:23:12.170Z,52.47
2022-09-06T01:25:52.012Z,52.68
2022-09-06T01:28:30.608Z,53.06
2022-09-06T01:31:20.800Z,53.50
2022-09-06T01:34:00.593Z,53.53
2022-09-06T01:36:45.766Z,53.53
2022-09-06T01:39:33.799Z,53.38
2022-09-06T01:42:08.435Z,53.42
2022-09-06T01:44:38.753Z,53.60
2022-09-06T01:47:35.702Z,53.81
2022-09-06T01:50:28.451Z,53.78
2022-09-06T01:53:09.630Z,53.86
2022-09-06T01:56:04.940Z,54.01
2022-09-06T01:59:17.454Z,54.00
2022-09-06T02:01:52.876Z,54.01
2022-09-06T02:04:33.055Z,54.20
2022-09-06T02:07:09.214Z,54.36
2022-09-06T02:09:43.840Z,54.40
2022-09-06T02:12:16.927Z,54.54
2022-09-06T02:14:51.247Z,54.72
2022-09-06T02:17:25.156Z,54.71
2022-09-06T02:19:59.881Z,54.81
2022-09-06T02:22:33.277Z,54.79
2022-09-06T02:25:04.320Z,55.02
2022-09-06T02:27:33.103Z,55.10
2022-09-06T02:30:03.263Z,55.16
2022-09-06T02:32:35.908Z,55.36
2022-09-06T02:35:09.095Z,55.56
2022-09-06T02:37:37.147Z,55.52
2022-09-06T02:40:06.164Z,55.84
2022-09-06T02:42:34.540Z,55.66
2022-09-06T02:45:02.922Z,55.97
2022-09-06T02:47:31.501Z,55.89
2022-09-06T02:49:59.676Z,56.04
2022-09-06T02:52:27.850Z,56.33
2022-09-06T02:54:56.024Z,56.33
2022-09-06T02:57:24.198Z,56.52
2022-09-06T02:59:52.371Z,56.71
2022-09-06T03:02:20.553Z,56.88
2022-09-06T03:04:49.026Z,57.04
2022-09-06T03:07:17.209Z,56.93
2022-09-06T03:09:45.476Z,57.44
2022-09-06T03:12:13.649Z,57.19
2022-09-06T03:14:41.824Z,57.34
2022-09-06T03:17:09.999Z,57.40
2022-09-06T03:19:38.171Z,57.42
2022-09-06T03:22:06.345Z,57.62
2022-09-06T03:24:34.417Z,57.60
2022-09-06T03:27:02.591Z,57.64
2022-09-06T03:29:30.764Z,57.66
2022-09-06T03:31:58.939Z,57.86
2022-09-06T03:34:27.215Z,58.07
2022-09-06T03:36:55.388Z,58.11
2022-09-06T03:39:23.786Z,58.54
2022-09-06T03:41:52.155Z,58.50
2022-09-06T03:44:20.171Z,58.56
2022-09-06T03:46:48.270Z,58.70
2022-09-06T03:49:16.287Z,58.72
2022-09-06T03:51:44.358Z,59.07
2022-09-06T03:54:12.551Z,59.12
2022-09-06T03:56:40.554Z,59.33
2022-09-06T03:59:08.616Z,58.86
2022-09-06T04:01:36.730Z,59.34
2022-09-06T04:04:04.891Z,59.40
2022-09-06T04:06:33.065Z,59.20
2022-09-06T04:09:01.238Z,59.40
2022-09-06T04:11:29.413Z,59.56
2022-09-06T04:13:57.586Z,59.46
2022-09-06T04:16:25.789Z,59.98
2022-09-06T04:18:54.855Z,60.05
2022-09-06T04:21:23.340Z,59.89
2022-09-06T04:23:51.514Z,59.64
2022-09-06T04:26:19.992Z,59.93
2022-09-06T04:28:48.172Z,59.85
2022-09-06T04:31:16.282Z,59.95
2022-09-06T04:33:44.617Z,59.98
2022-09-06T04:36:13.711Z,59.71
2022-09-06T04:38:43.935Z,60.03
2022-09-06T04:41:15.997Z,59.94
2022-09-06T04:43:44.171Z,60.15
2022-09-06T04:46:25.362Z,60.28
2022-09-06T04:48:55.061Z,60.21
2022-09-06T04:51:24.438Z,60.07
2022-09-06T04:53:53.046Z,60.47
2022-09-06T04:56:24.395Z,60.49
2022-09-06T04:58:54.621Z,60.31
2022-09-06T05:01:23.452Z,60.30
2022-09-06T05:03:56.175Z,60.41
2022-09-06T05:06:25.903Z,60.15
2022-09-06T05:08:54.173Z,60.17
2022-09-06T05:11:22.289Z,60.24
2022-09-06T05:13:50.647Z,60.43
2022-09-06T05:16:18.994Z,60.37
2022-09-06T05:18:47.294Z,60.65
2022-09-06T05:21:16.323Z,60.32
2022-09-06T05:23:44.752Z,60.41
2022-09-06T05:26:12.927Z,59.98
2022-09-06T05:28:41.098Z,60.22
2022-09-06T05:31:27.969Z,59.98
2022-09-06T05:33:57.825Z,60.55
2022-09-06T05:36:27.535Z,60.20
2022-09-06T05:38:56.937Z,60.25
2022-09-06T05:41:26.032Z,60.14
2022-09-06T05:43:54.515Z,60.45
2022-09-06T05:46:22.789Z,60.49
2022-09-06T05:48:55.980Z,60.26
2022-09-06T05:51:24.565Z,60.26
2022-09-06T05:53:53.148Z,60.67
2022-09-06T05:56:22.553Z,60.16
2022-09-06T05:58:51.062Z,60.16
2022-09-06T06:01:20.855Z,59.99
2022-09-06T06:03:57.547Z,60.14
2022-09-06T06:06:27.642Z,59.97
2022-09-06T06:08:56.581Z,60.05
2022-09-06T06:11:26.175Z,60.00
2022-09-06T06:13:55.129Z,60.01
2022-09-06T06:16:23.968Z,59.93
2022-09-06T06:18:52.938Z,59.96
2022-09-06T06:21:22.311Z,59.82
2022-09-06T06:23:53.865Z,59.76
2022-09-06T06:26:23.219Z,59.92
2022-09-06T06:28:52.153Z,59.86
2022-09-06T06:31:22.693Z,59.84
2022-09-06T06:33:51.371Z,59.92
2022-09-06T06:36:25.093Z,59.78
2022-09-06T06:38:55.533Z,59.56
2022-09-06T06:41:26.340Z,59.36
2022-09-06T06:43:59.632Z,59.38
2022-09-06T06:46:31.492Z,59.46
2022-09-06T06:49:00.220Z,59.35
2022-09-06T06:51:30.925Z,59.49
2022-09-06T06:53:59.423Z,59.21
2022-09-06T06:56:30.536Z,59.15
2022-09-06T06:59:01.578Z,59.36
2022-09-06T07:01:32.044Z,59.13
2022-09-06T07:04:00.432Z,59.18
2022-09-06T07:09:18.961Z,59.25
2022-09-06T07:11:49.088Z,58.77
2022-09-06T07:14:18.271Z,58.75
2022-09-06T07:16:46.813Z,58.60
2022-09-06T07:22:05.717Z,58.65
2022-09-06T07:24:34.109Z,58.51
2022-09-06T07:29:50.422Z,58.04
2022-09-06T07:32:18.801Z,58.10
2022-09-06T07:34:47.148Z,57.75
2022-09-06T07:37:15.557Z,57.89
2022-09-06T07:39:43.919Z,57.61
2022-09-06T07:42:12.110Z,57.45
2022-09-06T07:44:40.592Z,57.25
2022-09-06T07:55:34.113Z,56.53
2022-09-06T07:58:02.185Z,56.49
2022-09-06T08:00:30.361Z,55.76
2022-09-06T08:02:58.485Z,55.59
2022-09-06T08:11:03.912Z,54.39
2022-09-06T08:13:32.052Z,54.32
2022-09-06T08:16:03.546Z,53.59
2022-09-06T08:18:32.198Z,53.96
2022-09-06T08:21:14.632Z,53.28
2022-09-06T08:23:48.586Z,52.92
2022-09-06T08:26:18.658Z,52.05
2022-09-06T08:28:47.568Z,51.63
2022-09-06T08:31:17.839Z,50.99
2022-09-06T08:33:47.988Z,50.01
2022-09-06T08:36:16.385Z,49.57
2022-09-06T08:38:45.907Z,50.03
2022-09-06T08:41:14.126Z,50.05
2022-09-06T08:47:13.476Z,50.24
2022-09-06T08:49:55.579Z,49.49
2022-09-06T08:52:35.775Z,49.17
2022-09-06T08:55:30.471Z,49.59
2022-09-06T08:58:20.460Z,48.79
2022-09-06T09:00:53.270Z,48.70
2022-09-06T09:03:25.464Z,48.24
2022-09-06T09:05:54.587Z,48.11
2022-09-06T09:08:32.937Z,47.82
2022-09-06T09:11:10.478Z,47.24
2022-09-06T09:14:23.592Z,47.11
2022-09-06T09:16:53.252Z,47.36
2022-09-06T09:19:21.438Z,46.10
2022-09-06T09:21:49.650Z,45.84
2022-09-06T09:24:17.828Z,46.43
2022-09-06T09:26:51.735Z,46.45
2022-09-06T09:29:25.382Z,44.82
2022-09-06T09:31:56.566Z,44.93
2022-09-06T09:34:36.731Z,43.83
2022-09-06T09:40:03.706Z,43.55
2022-09-06T09:42:36.286Z,43.34
2022-09-06T09:45:22.812Z,43.57
2022-09-06T09:47:51.269Z,42.65
2022-09-06T09:50:26.211Z,43.27
2022-09-06T09:52:55.112Z,42.85
2022-09-06T09:55:28.527Z,41.95
2022-09-06T09:57:57.083Z,42.25
2022-09-06T10:00:43.272Z,40.74
2022-09-06T10:03:16.808Z,40.49
2022-09-06T10:06:02.162Z,40.98
2022-09-06T10:08:33.649Z,40.18
2022-09-06T10:11:01.963Z,40.16
2022-09-06T10:13:31.696Z,39.00
2022-09-06T10:16:00.935Z,39.40
2022-09-06T10:18:34.984Z,38.79
2022-09-06T10:21:11.043Z,38.42
2022-09-06T10:26:39.237Z,37.41
2022-09-06T10:29:11.306Z,37.47
2022-09-06T10:32:09.788Z,37.90
2022-09-06T10:34:43.899Z,36.64
2022-09-06T10:37:38.902Z,37.98
2022-09-06T10:40:10.545Z,36.28
2022-09-06T10:42:47.335Z,37.22
2022-09-06T10:45:27.921Z,36.54
2022-09-06T10:47:56.171Z,36.06
2022-09-06T10:50:52.096Z,36.67
2022-09-06T10:53:51.716Z,35.96
2022-09-06T10:56:25.515Z,35.94
2022-09-06T11:02:06.107Z,35.54
2022-09-06T11:07:31.534Z,35.31
2022-09-06T11:10:08.814Z,34.85
2022-09-06T11:13:05.462Z,34.70
2022-09-06T11:15:44.048Z,35.07
2022-09-06T11:18:16.600Z,35.16
2022-09-06T11:20:48.001Z,34.94
2022-09-06T11:23:33.074Z,34.69
2022-09-06T11:26:16.200Z,34.46
2022-09-06T11:28:53.076Z,34.83
2022-09-06T11:34:25.262Z,34.42
2022-09-06T11:37:04.390Z,34.25
2022-09-06T11:42:43.648Z,34.28
2022-09-06T11:45:11.717Z,33.21
2022-09-06T11:47:41.324Z,33.90
2022-09-06T11:50:54.280Z,33.54
2022-09-06T11:53:26.043Z,33.46
2022-09-06T11:56:00.138Z,32.58
2022-09-06T11:58:45.190Z,33.47
2022-09-06T12:01:13.471Z,32.65
2022-09-06T12:06:36.232Z,33.44
2022-09-06T12:09:28.777Z,32.72
2022-09-06T12:11:58.096Z,32.66
2022-09-06T12:14:36.186Z,32.80
2022-09-06T12:17:18.898Z,33.01
2022-09-06T12:19:52.192Z,32.21
2022-09-06T12:22:40.538Z,33.05
2022-09-06T12:25:43.427Z,32.26
2022-09-06T12:28:25.857Z,32.67
2022-09-06T12:30:54.390Z,32.77
2022-09-06T12:33:39.122Z,33.11
2022-09-06T12:36:33.639Z,32.43
2022-09-06T12:39:14.633Z,33.01
2022-09-06T12:41:49.543Z,32.97
2022-09-06T12:44:22.022Z,33.62
2022-09-06T12:46:51.948Z,33.71
2022-09-06T12:49:23.604Z,34.15
2022-09-06T12:51:51.530Z,33.01
2022-09-06T12:54:24.084Z,33.84
2022-09-06T12:56:52.923Z,33.01
2022-09-06T12:59:24.748Z,33.26
2022-09-06T13:02:00.860Z,33.38
2022-09-06T13:04:46.119Z,33.74
2022-09-06T13:07:17.725Z,33.61
2022-09-06T13:09:47.641Z,32.78
2022-09-06T13:12:27.773Z,33.00
2022-09-06T13:14:58.608Z,33.13
2022-09-06T13:17:29.444Z,33.42
2022-09-06T13:19:58.640Z,33.44
2022-09-06T13:22:51.006Z,33.55
2022-09-06T13:25:22.127Z,33.69
2022-09-06T13:27:54.499Z,34.17
2022-09-06T13:30:44.263Z,33.77
2022-09-06T13:33:25.817Z,34.53
2022-09-06T13:36:14.221Z,34.57
2022-09-06T13:38:43.617Z,34.12
2022-09-06T13:41:26.694Z,33.91
2022-09-06T13:44:07.203Z,34.08
2022-09-06T13:46:39.025Z,34.03
2022-09-06T13:49:07.728Z,34.11
2022-09-06T13:51:37.972Z,34.58
2022-09-06T13:54:16.077Z,34.68
2022-09-06T13:56:45.075Z,33.73
2022-09-06T13:59:13.244Z,34.08
2022-09-06T14:01:44.481Z,34.62
2022-09-06T14:04:15.839Z,33.88
2022-09-06T14:06:44.011Z,33.33
2022-09-06T14:09:12.467Z,34.18
2022-09-06T14:11:42.883Z,34.43
2022-09-06T14:14:14.373Z,34.26
2022-09-06T14:16:42.544Z,33.51
2022-09-06T14:19:10.923Z,34.11
2022-09-06T14:21:39.510Z,33.71
2022-09-06T14:24:08.127Z,34.13
2022-09-06T14:26:37.597Z,34.37
2022-09-06T14:29:06.487Z,34.17
2022-09-06T14:31:34.941Z,34.69
2022-09-06T14:34:06.212Z,33.94
2022-09-06T14:36:34.747Z,33.69
2022-09-06T14:39:04.311Z,33.30
2022-09-06T14:41:32.680Z,34.03
2022-09-06T14:44:01.058Z,33.99
2022-09-06T14:46:30.152Z,33.49
2022-09-06T14:49:01.299Z,33.76
2022-09-06T14:51:30.998Z,33.58
2022-09-06T14:54:05.714Z,33.22
2022-09-06T14:56:34.556Z,33.77
2022-09-06T14:59:02.697Z,33.40
2022-09-06T15:01:37.742Z,33.29
2022-09-06T15:04:09.467Z,33.12
2022-09-06T15:06:41.374Z,33.99
2022-09-06T15:09:11.635Z,33.85
2022-09-06T15:11:46.427Z,34.21
2022-09-06T15:14:18.159Z,34.59
2022-09-06T15:16:52.016Z,34.86
2022-09-06T15:19:25.006Z,34.46
2022-09-06T15:21:54.061Z,35.13
2022-09-06T15:24:22.362Z,34.94
2022-09-06T15:26:50.589Z,34.87
2022-09-06T15:29:19.431Z,34.88
2022-09-06T15:31:50.647Z,35.41
2022-09-06T15:34:21.231Z,35.27
2022-09-06T15:36:50.942Z,35.59
2022-09-06T15:39:19.485Z,36.19
2022-09-06T15:41:50.579Z,35.90
2022-09-06T15:44:20.967Z,36.26
2022-09-06T15:46:54.935Z,36.21
2022-09-06T15:49:32.111Z,36.43
2022-09-06T15:52:02.363Z,36.76
2022-09-06T15:54:49.299Z,36.76
2022-09-06T15:57:17.796Z,36.89
2022-09-06T15:59:46.333Z,36.95
2022-09-06T16:02:20.110Z,37.14
2022-09-06T16:04:54.980Z,37.41
2022-09-06T16:07:23.771Z,37.58
2022-09-06T16:09:51.913Z,37.57
2022-09-06T16:12:19.945Z,37.78
2022-09-06T16:14:48.020Z,37.82
2022-09-06T16:17:16.081Z,37.70
2022-09-06T16:19:45.763Z,37.66
2022-09-06T16:22:14.225Z,37.84
2022-09-06T16:24:43.148Z,38.13
2022-09-06T16:27:11.734Z,38.50
2022-09-06T16:29:39.971Z,38.60
2022-09-06T16:32:08.349Z,38.72
2022-09-06T16:34:38.160Z,39.10
2022-09-06T16:37:09.508Z,39.04
2022-09-06T16:39:37.872Z,38.89
2022-09-06T16:42:06.781Z,39.06
2022-09-06T16:44:35.055Z,39.07
2022-09-06T16:47:04.367Z,39.55
2022-09-06T16:49:32.635Z,39.63
2022-09-06T16:52:01.013Z,39.96
2022-09-06T16:54:29.285Z,40.06
2022-09-06T16:56:57.461Z,39.95
2022-09-06T16:59:25.634Z,40.10
2022-09-06T17:01:56.292Z,39.97
2022-09-06T17:04:24.542Z,40.18
2022-09-06T17:06:53.330Z,40.02
2022-09-06T17:09:21.405Z,40.36
2022-09-06T17:11:52.366Z,40.58
2022-09-06T17:14:20.473Z,40.65
2022-09-06T17:17:07.585Z,40.98
2022-09-06T17:19:43.996Z,40.92
2022-09-06T17:22:13.048Z,40.91
2022-09-06T17:24:41.881Z,40.75
2022-09-06T17:27:10.405Z,41.03
2022-09-06T17:29:40.384Z,40.83
2022-09-06T17:32:12.137Z,40.86
2022-09-06T17:34:41.233Z,41.29
2022-09-06T17:37:09.745Z,41.34
2022-09-06T17:39:39.058Z,41.36
2022-09-06T17:42:07.497Z,41.13
2022-09-06T17:44:36.283Z,41.18
2022-09-06T17:47:13.488Z,41.58
2022-09-06T17:49:43.489Z,41.21
2022-09-06T17:52:12.721Z,41.90
2022-09-06T17:54:40.905Z,41.73
2022-09-06T17:57:10.362Z,41.91
2022-09-06T17:59:39.866Z,42.47
2022-09-06T18:02:08.655Z,42.45
2022-09-06T18:04:36.945Z,42.37
2022-09-06T18:07:05.412Z,42.09
2022-09-06T18:09:33.793Z,42.21
2022-09-06T18:12:02.271Z,42.30
2022-09-06T18:14:30.449Z,42.86
2022-09-06T18:16:58.793Z,42.51
2022-09-06T18:19:28.055Z,42.82
2022-09-06T18:21:57.567Z,43.10
2022-09-06T18:24:25.905Z,42.96
2022-09-06T18:26:54.099Z,42.94
2022-09-06T18:29:22.726Z,43.18
2022-09-06T18:31:54.529Z,43.56
2022-09-06T18:34:23.119Z,43.04
2022-09-06T18:36:51.590Z,43.17
2022-09-06T18:39:20.646Z,43.03
2022-09-06T18:42:01.109Z,43.20
2022-09-06T18:44:35.089Z,42.99
2022-09-06T18:47:06.505Z,42.98
2022-09-06T18:49:35.588Z,43.29
2022-09-06T18:52:05.822Z,43.02
2022-09-06T18:54:35.227Z,43.26
2022-09-06T18:57:04.593Z,43.16
2022-09-06T18:59:32.800Z,43.30
2022-09-06T19:02:01.471Z,43.50
2022-09-06T19:04:29.864Z,43.15
2022-09-06T19:07:02.242Z,43.43
2022-09-06T19:09:30.720Z,43.66
2022-09-06T19:11:58.943Z,43.42
2022-09-06T19:14:27.169Z,43.47
2022-09-06T19:16:55.444Z,43.42
2022-09-06T19:19:23.926Z,42.85
2022-09-06T19:21:52.099Z,42.72
2022-09-06T19:24:22.918Z,42.45
2022-09-06T19:26:53.263Z,42.50
2022-09-06T19:29:21.849Z,42.62
2022-09-06T19:31:50.087Z,42.62
2022-09-06T19:34:18.703Z,43.15
2022-09-06T19:36:50.829Z,43.00
2022-09-06T19:39:21.739Z,42.98
2022-09-06T19:41:49.986Z,42.39
2022-09-06T19:44:18.771Z,43.18
2022-09-06T19:46:47.604Z,43.39
2022-09-06T19:49:19.465Z,43.23
2022-09-06T19:51:49.263Z,42.58
2022-09-06T19:54:18.301Z,42.26
2022-09-06T19:56:47.452Z,43.15
2022-09-06T19:59:16.588Z,42.58
2022-09-06T20:01:46.566Z,41.84
2022-09-06T20:04:15.323Z,41.38
2022-09-06T20:06:43.804Z,41.52
2022-09-06T20:09:13.232Z,41.80
2022-09-06T20:11:42.409Z,41.50
2022-09-06T20:14:12.524Z,41.90
2022-09-06T20:16:42.475Z,42.21
2022-09-06T20:19:12.767Z,42.48
2022-09-06T20:21:41.448Z,41.69
2022-09-06T20:24:09.939Z,42.27
2022-09-06T20:26:38.514Z,41.97
2022-09-06T20:29:08.141Z,42.06
2022-09-06T20:31:37.876Z,43.01
2022-09-06T20:34:07.288Z,42.57
2022-09-06T20:36:36.081Z,42.44
2022-09-06T20:39:04.811Z,42.42
2022-09-06T20:41:34.214Z,41.99
2022-09-06T20:44:03.912Z,42.38
2022-09-06T20:46:35.515Z,42.10
2022-09-06T20:49:05.238Z,42.31
2022-09-06T20:51:36.334Z,42.05
2022-09-06T20:54:05.665Z,42.02
2022-09-06T20:56:37.796Z,41.41
2022-09-06T20:59:09.195Z,41.80
2022-09-06T21:01:41.248Z,41.38
2022-09-06T21:04:11.535Z,41.31
2022-09-06T21:06:40.853Z,41.95
2022-09-06T21:09:11.894Z,42.69
2022-09-06T21:11:40.779Z,42.36
2022-09-06T21:14:09.912Z,42.54
2022-09-06T21:16:39.213Z,41.69
2022-09-06T21:19:09.486Z,42.79
2022-09-06T21:21:38.372Z,42.14
2022-09-06T21:24:07.950Z,42.73
2022-09-06T21:26:36.159Z,41.87
2022-09-06T21:29:04.639Z,42.31
2022-09-06T21:31:36.402Z,42.88
2022-09-06T21:34:09.048Z,43.29
2022-09-06T21:36:39.588Z,42.50
2022-09-06T21:39:10.239Z,42.88
2022-09-06T21:41:40.254Z,43.57
2022-09-06T21:44:09.760Z,43.72
2022-09-06T21:46:39.738Z,43.23
2022-09-06T21:49:10.820Z,43.72
2022-09-06T21:51:39.712Z,43.37
2022-09-06T21:54:07.886Z,43.05
2022-09-06T21:56:38.126Z,42.99
2022-09-06T21:59:06.696Z,42.85
2022-09-06T22:01:36.508Z,43.71
2022-09-06T22:04:06.265Z,43.86
2022-09-06T22:06:35.935Z,43.23
2022-09-06T22:09:08.908Z,43.53
2022-09-06T22:11:39.845Z,43.50
2022-09-06T22:14:10.373Z,43.19
2022-09-06T22:16:40.083Z,42.95
2022-09-06T22:19:09.798Z,43.26
2022-09-06T22:21:38.914Z,43.81
2022-09-06T22:24:10.241Z,43.52
2022-09-06T22:26:40.568Z,43.78
2022-09-06T22:29:11.297Z,44.25
2022-09-06T22:31:40.468Z,43.91
2022-09-06T22:34:09.203Z,43.91
2022-09-06T22:36:37.560Z,44.24
2022-09-06T22:39:06.550Z,43.85
2022-09-06T22:41:34.733Z,44.35
2022-09-06T22:44:04.005Z,44.57
2022-09-06T22:46:33.097Z,45.06
2022-09-06T22:49:02.523Z,44.73
2022-09-06T22:51:30.901Z,44.69
2022-09-06T22:53:59.075Z,44.67
2022-09-06T22:56:27.251Z,44.51
2022-09-06T22:58:55.525Z,44.52
2022-09-06T23:01:23.773Z,45.02
2022-09-06T23:03:51.977Z,44.78
2022-09-06T23:06:20.156Z,45.08
2022-09-06T23:08:48.630Z,45.51
2022-09-06T23:11:19.102Z,44.96
2022-09-06T23:13:47.354Z,44.88
2022-09-06T23:16:18.788Z,44.58
2022-09-06T23:18:47.958Z,45.16
2022-09-06T23:21:18.818Z,45.01
2022-09-06T23:23:48.757Z,45.77
2022-09-06T23:26:22.966Z,46.28
2022-09-06T23:28:52.111Z,45.86
2022-09-06T23:31:20.351Z,45.99
2022-09-06T23:33:52.283Z,45.74
2022-09-06T23:36:20.660Z,45.62
2022-09-06T23:38:49.039Z,45.81
2022-09-06T23:41:18.135Z,46.19
2022-09-06T23:43:46.410Z,46.10
2022-09-06T23:46:17.271Z,46.05
2022-09-06T23:48:45.831Z,46.31
2022-09-06T23:51:14.311Z,46.50
2022-09-06T23:53:42.690Z,47.06
2022-09-06T23:56:11.989Z,46.88
2022-09-06T23:58:40.381Z,46.89
